Flight Track Log - Related Links

Times and Time Zones

All times are in EDT time to prevent confusion due to time zone crossing. See the DAL3759 flight status page for this flight to view local times or setup timezone preferences in your user account.

Time Position Orientation Groundspeed Altitude Reporting Facility
EDT Latitude Longitude Course Direction KTS MPH feet Rate Location/Type
Sat 01:57:07 PM 44.7322 -85.6239 134° Southeast 158 182 2,100  Level Minneapolis Center
Sat 01:58:08 PM 44.6889 -85.5961 155° Southeast 213 245 4,000 2,341 Climbing Minneapolis Center
Sat 01:59:10 PM 44.6406 -85.5331 137° Southeast 228 262 6,900 2,903 Climbing Minneapolis Center
Sat 02:00:00 PM 44.4958 -85.3321 138° Southeast  Level FlightAware Approximate
Sat 02:00:12 PM 44.5867 -85.4628 137° Southeast 252 290 10,000  Level Minneapolis Center
Sat 02:01:00 PM 44.4400 -85.2624 138° Southeast  Level FlightAware Approximate
Sat 02:01:13 PM 44.5306 -85.3872 136° Southeast 270 311 11,900  Level Minneapolis Center
Sat 02:02:00 PM 44.3798 -85.1805 134° Southeast  Level FlightAware Approximate
Sat 02:02:15 PM 44.4653 -85.2964 135° Southeast 314 361 12,700  Level Minneapolis Center
Sat 02:03:16 PM 44.3772 -85.1806 137° Southeast 358 412 14,500 1,366 Climbing Minneapolis Center
Sat 02:04:18 PM 44.3011 -85.0792 136° Southeast 373 429 15,500 1,024 Climbing Minneapolis Center
Sat 02:05:19 PM 44.2231 -84.9761 137° Southeast 382 440 16,600 732 Climbing Minneapolis Center
Sat 02:06:21 PM 44.1436 -84.8703 136° Southeast 391 450 17,000 195 Climbing Minneapolis Center
Sat 02:07:22 PM 44.0644 -84.7656 136° Southeast 394 453 17,000  Level Minneapolis Center
Sat 02:08:36 PM 43.9764 -84.6508 137° Southeast 394 453 17,000 44 Level Minneapolis Center
Sat 02:09:38 PM 43.8800 -84.5261 137° Southeast 394 453 17,100 49 Climbing Minneapolis Center
Sat 02:10:39 PM 43.8003 -84.4225 137° Southeast 393 452 17,100  Level Minneapolis Center
Sat 02:11:41 PM 43.7208 -84.3189 137° Southeast 393 452 17,100 -49 Level Minneapolis Center
Sat 02:12:42 PM 43.6400 -84.2147 137° Southeast 395 455 17,000  Descending Minneapolis Center
Sat 02:13:24 PM 43.5703 -84.1506 146° Southeast 399 459 17,100 59 Climbing Cleveland Center
Sat 02:14:24 PM 43.4617 -84.0897 158° South 404 465 17,100 -50 Level Cleveland Center
Sat 02:15:24 PM 43.3592 -84.0325 158° South 397 457 17,000  Descending Cleveland Center
Sat 02:16:24 PM 43.2606 -83.9758 157° South 397 457 17,100 50 Climbing Cleveland Center
Sat 02:17:24 PM 43.1581 -83.9189 158° South 392 451 17,100 -250 Level Cleveland Center
Sat 02:18:24 PM 43.0761 -83.8747 159° South 392 451 16,600 -1,603 Descending Cleveland Center
Sat 02:19:20 PM 42.9653 -83.8092 157° South 377 434 14,000 -2,250 Descending Cleveland Center
Sat 02:20:24 PM 42.8647 -83.7531 158° South 387 445 12,100 -1,395 Descending Cleveland Center
Sat 02:20:46 PM 42.8297 -83.7314 156° South 365 420 12,000 -100 Descending Cleveland Center
Sat 02:21:24 PM 42.7703 -83.6972 157° South 377 434 12,000  Level Cleveland Center
Sat 02:21:53 PM 42.7272 -83.6697 155° Southeast 366 421 12,000  Level Cleveland Center
Sat 02:22:24 PM 42.6800 -83.6419 157° South 372 428 12,000  Level Cleveland Center
Sat 02:22:54 PM 42.6328 -83.6172 159° South 368 423 12,000  Level Cleveland Center
Sat 02:23:24 PM 42.5836 -83.5867 155° Southeast 372 428 12,000  Level Cleveland Center
Sat 02:23:55 PM 42.5406 -83.5592 155° Southeast 367 422 12,000  Level Cleveland Center
Sat 02:24:24 PM 42.4911 -83.5314 157° South 372 428 12,000  Level Cleveland Center
Sat 02:24:56 PM 42.4497 -83.5211 170° South 309 356 12,000  Level Cleveland Center
Sat 02:25:24 PM 42.4189 -83.5083 163° South 332 382 12,000  Level Cleveland Center
Sat 02:25:57 PM 42.3775 -83.4953 167° South 239 275 12,000  Level Cleveland Center
Sat 02:26:24 PM 42.3547 -83.4886 168° South 269 310 12,000 -1,082 Level Cleveland Center
Sat 02:26:58 PM 42.3128 -83.4922 184° South 229 264 10,900 -1,900 Descending Cleveland Center
Sat 02:27:24 PM 42.2839 -83.4908 178° South 239 275 10,100 -2,066 Descending Cleveland Center
Sat 02:27:59 PM 42.2481 -83.4978 188° South 230 265 8,800 -1,900 Descending Cleveland Center
Sat 02:28:24 PM 42.2228 -83.5078 196° South 230 265 8,200 -1,869 Descending Cleveland Center
Sat 02:29:00 PM 42.1931 -83.5289 208° Southwest 203 234 6,900 -2,118 Descending Cleveland Center
Sat 02:29:49 PM 42.1489 -83.5519 201° Southwest 209 241 5,200 -1,918 Descending Cleveland Center
Sat 02:31:02 PM 42.1022 -83.4967 139° Southeast 211 243 3,000 -1,276 Descending Cleveland Center
Sat 02:31:56 PM 42.1308 -83.4419 55° Northeast 185 213 2,500 -771 Descending Cleveland Center
Sat 02:32:51 PM 42.1647 -83.4125 33° Northeast 143 165 1,600 -879 Descending Cleveland Center
Sat 02:33:52 PM 42.2008 -83.3889 26° Northeast 140 161 800 -787 Descending Cleveland Center

Login

Don't have an account? Register now (free) for customized features, flight alerts, and more!